createdAt,value
2022-11-16T00:03:32.369Z,10.23
2022-11-16T00:08:35.985Z,10.25
2022-11-16T00:13:38.132Z,10.21
2022-11-16T00:18:39.546Z,10.23
2022-11-16T00:23:40.870Z,10.23
2022-11-16T00:28:42.494Z,10.23
2022-11-16T00:33:43.813Z,10.21
2022-11-16T00:38:45.127Z,10.15
2022-11-16T00:43:46.468Z,10.16
2022-11-16T00:48:47.850Z,10.16
2022-11-16T00:53:49.191Z,10.11
2022-11-16T00:58:50.514Z,10.16
2022-11-16T01:03:51.827Z,10.20
2022-11-16T01:08:53.179Z,10.15
2022-11-16T01:13:55.213Z,10.25
2022-11-16T01:18:56.590Z,10.31
2022-11-16T01:23:57.982Z,10.32
2022-11-16T01:28:59.635Z,10.30
2022-11-16T01:34:01.116Z,10.31
2022-11-16T01:39:03.508Z,10.31
2022-11-16T01:44:27.923Z,10.23
2022-11-16T01:49:30.747Z,10.25
2022-11-16T01:54:34.160Z,10.22
2022-11-16T01:59:36.077Z,10.29
2022-11-16T02:04:37.409Z,10.24
2022-11-16T02:09:54.305Z,10.18
2022-11-16T02:14:58.699Z,10.17
2022-11-16T02:20:18.993Z,10.12
2022-11-16T02:25:29.547Z,10.11
2022-11-16T02:30:31.184Z,10.09
2022-11-16T02:35:36.068Z,10.10
2022-11-16T02:40:39.917Z,10.11
2022-11-16T02:45:43.960Z,10.14
2022-11-16T02:50:46.485Z,10.14
2022-11-16T02:55:47.832Z,10.10
2022-11-16T03:01:14.911Z,10.15
2022-11-16T03:06:18.513Z,10.17
2022-11-16T03:11:38.691Z,10.18
2022-11-16T03:16:45.546Z,10.16
2022-11-16T03:21:48.275Z,10.19
2022-11-16T03:26:53.310Z,10.25
2022-11-16T03:31:57.260Z,10.23
2022-11-16T03:37:00.232Z,10.20
2022-11-16T03:42:03.811Z,10.13
2022-11-16T03:47:05.173Z,10.11
2022-11-16T03:52:06.543Z,10.14
2022-11-16T03:57:07.882Z,10.17
2022-11-16T04:02:09.279Z,10.19
2022-11-16T04:07:29.162Z,10.21
2022-11-16T04:12:49.289Z,10.29
2022-11-16T04:18:09.301Z,10.26
2022-11-16T04:23:31.851Z,10.21
2022-11-16T04:28:34.439Z,10.16
2022-11-16T04:33:54.806Z,10.11
2022-11-16T04:38:56.109Z,10.08
2022-11-16T04:43:57.701Z,10.09
2022-11-16T04:48:59.033Z,10.09
2022-11-16T04:54:00.414Z,10.09
2022-11-16T04:59:01.779Z,10.03
2022-11-16T05:04:03.145Z,9.93
2022-11-16T05:09:04.521Z,9.90
2022-11-16T05:14:06.271Z,9.84
2022-11-16T05:19:26.316Z,9.89
2022-11-16T05:24:33.443Z,9.80
2022-11-16T05:29:35.285Z,9.54
2022-11-16T05:34:36.629Z,9.31
2022-11-16T05:39:38.247Z,9.21
2022-11-16T05:44:39.647Z,8.96
2022-11-16T05:49:41.002Z,8.82
2022-11-16T05:54:42.302Z,8.67
2022-11-16T05:59:44.035Z,8.47
2022-11-16T06:04:45.340Z,8.43
2022-11-16T06:09:46.670Z,8.31
2022-11-16T06:14:47.975Z,8.08
2022-11-16T06:19:49.272Z,7.94
2022-11-16T06:24:50.559Z,7.84
2022-11-16T06:29:51.864Z,7.83
2022-11-16T06:34:54.629Z,7.69
2022-11-16T06:39:56.011Z,7.55
2022-11-16T06:44:57.328Z,7.46
2022-11-16T06:49:58.636Z,7.28
2022-11-16T06:54:59.931Z,7.19
2022-11-16T07:00:01.235Z,7.06
2022-11-16T07:05:03.900Z,6.88
2022-11-16T07:10:05.757Z,6.77
2022-11-16T07:15:07.367Z,6.81
2022-11-16T07:20:08.974Z,6.86
2022-11-16T07:25:10.304Z,6.85
2022-11-16T07:30:11.967Z,6.89
2022-11-16T07:35:13.285Z,7.00
2022-11-16T07:40:14.722Z,7.10
2022-11-16T07:45:16.075Z,7.26
2022-11-16T07:50:17.419Z,7.53
2022-11-16T07:55:18.803Z,7.76
2022-11-16T08:00:20.115Z,9.37
2022-11-16T08:05:21.600Z,10.72
2022-11-16T08:10:23.301Z,10.93
2022-11-16T08:15:25.037Z,12.55
2022-11-16T08:20:26.521Z,12.20
2022-11-16T08:25:27.844Z,11.02
2022-11-16T08:30:29.239Z,10.01
2022-11-16T08:35:30.620Z,9.43
2022-11-16T08:40:33.402Z,9.34
2022-11-16T08:45:34.700Z,9.23
2022-11-16T08:50:55.534Z,9.43
2022-11-16T08:56:01.966Z,9.64
2022-11-16T09:01:10.516Z,9.67
2022-11-16T09:06:12.714Z,9.87
2022-11-16T09:11:18.702Z,10.22
2022-11-16T09:16:21.064Z,11.72
2022-11-16T09:21:23.906Z,12.85
2022-11-16T09:26:25.361Z,13.98
2022-11-16T09:31:27.818Z,14.29
2022-11-16T09:36:29.542Z,14.90
2022-11-16T09:41:47.291Z,15.63
2022-11-16T09:46:52.600Z,15.58
2022-11-16T09:51:57.245Z,15.22
2022-11-16T09:57:00.388Z,14.75
2022-11-16T10:02:05.716Z,15.46
2022-11-16T10:07:17.474Z,15.64
2022-11-16T10:12:26.675Z,16.53
2022-11-16T10:17:46.946Z,16.39
2022-11-16T10:22:54.563Z,16.66
2022-11-16T10:27:55.878Z,17.82
2022-11-16T10:33:23.693Z,15.48
2022-11-16T10:38:27.671Z,13.46
2022-11-16T10:43:31.508Z,15.04
2022-11-16T10:48:51.247Z,16.38
2022-11-16T10:53:53.855Z,17.86
2022-11-16T10:58:58.987Z,18.07
2022-11-16T11:04:12.433Z,16.78
2022-11-16T11:09:34.022Z,15.23
2022-11-16T11:14:36.221Z,16.91
2022-11-16T11:19:37.565Z,17.29
2022-11-16T11:24:46.140Z,16.64
2022-11-16T11:29:50.955Z,17.20
2022-11-16T11:34:53.236Z,16.80
2022-11-16T11:40:05.064Z,17.34
2022-11-16T11:45:08.881Z,15.27
2022-11-16T11:50:25.870Z,15.62
2022-11-16T11:55:27.243Z,16.99
2022-11-16T12:00:36.454Z,16.57
2022-11-16T12:06:02.550Z,17.02
2022-11-16T12:11:22.400Z,16.76
2022-11-16T12:16:28.964Z,15.78
2022-11-16T12:21:41.211Z,16.45
2022-11-16T12:26:46.072Z,15.55
2022-11-16T12:31:53.489Z,16.55
2022-11-16T12:37:10.794Z,15.22
2022-11-16T12:42:23.775Z,14.82
2022-11-16T12:47:31.256Z,13.78
2022-11-16T12:52:38.751Z,14.01
2022-11-16T12:58:06.516Z,13.80
2022-11-16T13:03:14.833Z,13.33
2022-11-16T13:08:34.818Z,13.79
2022-11-16T13:13:51.427Z,13.31
2022-11-16T13:18:55.441Z,13.04
2022-11-16T13:23:59.486Z,13.03
2022-11-16T13:29:15.281Z,12.77
2022-11-16T13:34:23.895Z,12.95
2022-11-16T13:39:44.204Z,12.87
2022-11-16T13:44:50.384Z,12.92
2022-11-16T13:49:54.354Z,12.86
2022-11-16T13:54:56.902Z,13.31
2022-11-16T14:00:01.561Z,13.04
2022-11-16T14:05:04.835Z,12.87
2022-11-16T14:10:07.799Z,12.84
2022-11-16T14:15:15.034Z,12.92
2022-11-16T14:20:24.596Z,12.87
2022-11-16T14:25:31.985Z,12.57
2022-11-16T14:30:45.550Z,12.51
2022-11-16T14:35:50.605Z,12.54
2022-11-16T14:40:58.924Z,12.41
2022-11-16T14:46:05.583Z,12.51
2022-11-16T14:51:18.928Z,12.65
2022-11-16T14:56:20.706Z,12.56
2022-11-16T15:01:42.280Z,12.58
2022-11-16T15:06:46.138Z,12.53
2022-11-16T15:12:07.556Z,12.33
2022-11-16T15:17:09.844Z,11.93
2022-11-16T15:22:17.902Z,11.74
2022-11-16T15:27:26.246Z,11.64
2022-11-16T15:32:27.545Z,11.48
2022-11-16T15:37:29.794Z,11.38
2022-11-16T15:42:31.171Z,11.32
2022-11-16T15:47:32.539Z,11.31
2022-11-16T15:52:52.626Z,11.30
2022-11-16T15:58:14.448Z,11.06
2022-11-16T16:03:26.216Z,10.90
2022-11-16T16:08:30.438Z,10.73
2022-11-16T16:13:39.486Z,10.59
2022-11-16T16:18:41.780Z,10.46
2022-11-16T16:23:46.574Z,10.40
2022-11-16T16:28:47.986Z,10.33
2022-11-16T16:33:49.334Z,10.10
2022-11-16T16:38:50.685Z,10.01
2022-11-16T16:43:52.119Z,9.83
2022-11-16T16:48:53.418Z,9.82
2022-11-16T16:53:54.742Z,9.72
2022-11-16T16:58:56.079Z,9.51
2022-11-16T17:03:57.648Z,9.39
2022-11-16T17:08:59.186Z,9.33
2022-11-16T17:14:00.585Z,9.29
2022-11-16T17:19:02.469Z,9.31
2022-11-16T17:24:04.011Z,9.16
2022-11-16T17:29:05.367Z,9.04
2022-11-16T17:34:10.807Z,8.96
2022-11-16T17:39:16.054Z,8.90
2022-11-16T17:44:21.566Z,8.89
2022-11-16T17:49:23.319Z,8.89
2022-11-16T17:54:24.623Z,8.90
2022-11-16T17:59:29.490Z,8.96
2022-11-16T18:04:31.375Z,8.80
2022-11-16T18:09:32.688Z,8.83
2022-11-16T18:14:34.040Z,8.93
2022-11-16T18:19:35.361Z,9.01
2022-11-16T18:24:36.674Z,9.03
2022-11-16T18:29:38.035Z,8.97
2022-11-16T18:34:39.355Z,8.92
2022-11-16T18:39:40.728Z,8.84
2022-11-16T18:44:42.023Z,8.71
2022-11-16T18:49:43.332Z,8.72
2022-11-16T18:54:44.655Z,8.80
2022-11-16T18:59:45.987Z,8.83
2022-11-16T19:04:47.488Z,8.81
2022-11-16T19:09:48.795Z,8.88
2022-11-16T19:14:50.134Z,8.88
2022-11-16T19:19:51.510Z,8.84
2022-11-16T19:24:53.206Z,8.77
2022-11-16T19:29:54.547Z,8.78
2022-11-16T19:34:55.863Z,8.79
2022-11-16T19:39:57.192Z,8.84
2022-11-16T19:44:58.522Z,8.82
2022-11-16T19:49:59.839Z,8.74
2022-11-16T19:55:01.186Z,8.66
2022-11-16T20:00:02.579Z,8.59
2022-11-16T20:05:04.048Z,8.60
2022-11-16T20:10:06.007Z,8.69
2022-11-16T20:15:07.510Z,8.64
2022-11-16T20:20:09.150Z,8.63
2022-11-16T20:25:11.094Z,8.74
2022-11-16T20:30:12.668Z,8.82
2022-11-16T20:35:18.922Z,9.11
2022-11-16T20:40:20.585Z,9.19
2022-11-16T20:45:21.908Z,9.35
2022-11-16T20:50:23.216Z,9.41
2022-11-16T20:55:24.520Z,9.35
2022-11-16T21:00:25.871Z,9.31
2022-11-16T21:05:27.193Z,9.25
2022-11-16T21:10:28.757Z,9.21
2022-11-16T21:15:30.065Z,9.21
2022-11-16T21:20:31.497Z,9.34
2022-11-16T21:25:32.809Z,9.31
2022-11-16T21:30:34.113Z,9.29
2022-11-16T21:35:35.423Z,9.43
2022-11-16T21:40:37.046Z,9.53
2022-11-16T21:45:38.360Z,9.55
2022-11-16T21:50:39.768Z,9.65
2022-11-16T21:55:48.274Z,9.86
2022-11-16T22:00:49.852Z,9.91
2022-11-16T22:06:20.032Z,10.01
2022-11-16T22:11:22.088Z,10.07
2022-11-16T22:16:23.809Z,10.06
2022-11-16T22:21:25.173Z,10.09
2022-11-16T22:26:26.478Z,10.12
2022-11-16T22:31:27.805Z,10.14
2022-11-16T22:36:29.159Z,10.20
2022-11-16T22:41:30.479Z,10.23
2022-11-16T22:46:31.776Z,10.25
2022-11-16T22:51:33.118Z,10.25
2022-11-16T22:56:34.481Z,10.21
2022-11-16T23:01:36.207Z,10.20
2022-11-16T23:06:37.633Z,10.17
2022-11-16T23:11:57.627Z,10.04
2022-11-16T23:16:58.967Z,9.94
2022-11-16T23:22:18.979Z,9.88
2022-11-16T23:27:32.370Z,9.97
2022-11-16T23:32:33.687Z,10.04
2022-11-16T23:37:35.201Z,10.09
2022-11-16T23:42:55.106Z,9.93
2022-11-16T23:47:56.405Z,10.02
2022-11-16T23:52:57.742Z,10.03
2022-11-16T23:57:59.347Z,10.12
